Terminal Aerodrome Forecast
Issued by NWS

Home | Current Version | Previous Version | Text Only | Print | Product List | Glossary On
Versions: 1 2 3 4 5 6 7 8 9 10 11 12 13 14
000
FTUS46 KOTX 300534
TAFSFF
TAF
KSFF 300534Z 3006/3106 VRB02KT P6SM SKC
     FM301200 04003KT P6SM SCT150 BKN200
     FM302000 20005KT P6SM BKN120 OVC200
     FM310000 24005KT P6SM VCTS BKN100CB OVC150
     FM310400 VRB03KT P6SM BKN150=

USA.gov is the U.S. government's official web portal to all federal, state and local government web resources and services.